createdAt,value
2019-06-10T00:00:21.229Z,25.36
2019-06-10T00:01:21.379Z,25.40
2019-06-10T00:02:21.333Z,25.33
2019-06-10T00:03:20.621Z,25.36
2019-06-10T00:04:21.932Z,25.35
2019-06-10T00:05:21.476Z,25.38
2019-06-10T00:06:20.980Z,25.38
2019-06-10T00:07:21.092Z,25.29
2019-06-10T00:08:20.939Z,25.33
2019-06-10T00:09:21.098Z,25.29
2019-06-10T00:10:21.345Z,25.31
2019-06-10T00:11:21.252Z,25.29
2019-06-10T00:12:20.976Z,25.28
2019-06-10T00:13:20.927Z,25.26
2019-06-10T00:14:21.226Z,25.32
2019-06-10T00:15:21.217Z,25.29
2019-06-10T00:16:20.834Z,25.28
2019-06-10T00:17:21.202Z,25.31
2019-06-10T00:18:35.348Z,25.26
2019-06-10T00:19:21.714Z,25.32
2019-06-10T00:20:21.472Z,25.31
2019-06-10T00:21:21.576Z,25.26
2019-06-10T00:22:21.419Z,25.31
2019-06-10T00:23:21.232Z,25.29
2019-06-10T00:24:21.107Z,25.26
2019-06-10T00:25:20.987Z,25.32
2019-06-10T00:26:21.476Z,25.31
2019-06-10T00:27:21.458Z,25.35
2019-06-10T00:28:21.581Z,25.23
2019-06-10T00:29:18.980Z,25.29
2019-06-10T00:30:20.844Z,25.38
2019-06-10T00:31:20.749Z,25.38
2019-06-10T00:32:21.375Z,25.35
2019-06-10T00:33:21.439Z,25.36
2019-06-10T00:34:20.832Z,25.38
2019-06-10T00:35:20.950Z,25.40
2019-06-10T00:36:21.376Z,25.33
2019-06-10T00:37:21.117Z,25.33
2019-06-10T00:38:21.213Z,25.41
2019-06-10T00:39:18.882Z,25.31
2019-06-10T00:40:21.299Z,25.38
2019-06-10T00:41:18.853Z,25.36
2019-06-10T00:42:21.444Z,25.32
2019-06-10T00:43:21.203Z,25.36
2019-06-10T00:44:20.613Z,25.43
2019-06-10T00:45:21.431Z,25.33
2019-06-10T00:46:21.070Z,25.33
2019-06-10T00:47:21.047Z,25.33
2019-06-10T00:48:26.200Z,25.31
2019-06-10T00:49:21.300Z,25.29
2019-06-10T00:50:18.756Z,25.41
2019-06-10T00:51:20.769Z,25.35
2019-06-10T00:52:21.200Z,25.32
2019-06-10T00:53:20.948Z,25.36
2019-06-10T00:54:18.713Z,25.36
2019-06-10T00:55:21.047Z,25.33
2019-06-10T00:56:18.697Z,25.33
2019-06-10T00:57:20.749Z,25.38
2019-06-10T00:58:21.462Z,25.33
2019-06-10T00:59:18.665Z,25.29
2019-06-10T01:00:25.637Z,25.32
2019-06-10T01:01:21.873Z,25.33
2019-06-10T01:02:21.195Z,25.33
2019-06-10T01:03:20.838Z,25.33
2019-06-10T01:04:21.411Z,25.33
2019-06-10T01:05:20.748Z,25.32
2019-06-10T01:06:21.136Z,25.33
2019-06-10T01:07:18.575Z,25.29
2019-06-10T01:08:21.249Z,25.46
2019-06-10T01:09:18.550Z,25.38
2019-06-10T01:10:20.940Z,25.38
2019-06-10T01:11:25.839Z,25.41
2019-06-10T01:12:21.139Z,25.33
2019-06-10T01:13:20.638Z,25.38
2019-06-10T01:14:18.497Z,25.40
2019-06-10T01:15:18.485Z,25.33
2019-06-10T01:16:18.475Z,25.43
2019-06-10T01:17:18.465Z,25.33
2019-06-10T01:18:34.850Z,25.35
2019-06-10T01:19:21.684Z,25.35
2019-06-10T01:20:18.440Z,25.38
2019-06-10T01:21:18.421Z,25.38
2019-06-10T01:22:18.413Z,25.31
2019-06-10T01:23:18.402Z,25.28
2019-06-10T01:24:18.397Z,25.26
2019-06-10T01:25:18.382Z,25.28
2019-06-10T01:26:18.399Z,25.26
2019-06-10T01:27:18.360Z,25.28
2019-06-10T01:28:18.644Z,25.25
2019-06-10T01:29:20.829Z,25.25
2019-06-10T01:30:23.618Z,25.23
2019-06-10T01:31:23.920Z,25.31
2019-06-10T01:32:18.322Z,25.32
2019-06-10T01:33:18.290Z,25.32
2019-06-10T01:34:18.470Z,25.31
2019-06-10T01:35:18.284Z,25.29
2019-06-10T01:36:20.878Z,25.29
2019-06-10T01:37:18.260Z,25.29
2019-06-10T01:38:20.714Z,25.29
2019-06-10T01:39:18.316Z,25.33
2019-06-10T01:40:20.768Z,25.29
2019-06-10T01:41:18.226Z,25.29
2019-06-10T01:42:18.278Z,25.29
2019-06-10T01:43:18.444Z,25.26
2019-06-10T01:44:18.240Z,25.18
2019-06-10T01:45:18.294Z,25.16
2019-06-10T01:46:18.168Z,25.17
2019-06-10T01:47:18.142Z,25.14
2019-06-10T01:48:18.170Z,25.11
2019-06-10T01:49:18.264Z,25.22
2019-06-10T01:50:19.492Z,25.16
2019-06-10T01:51:18.096Z,25.16
2019-06-10T01:52:18.463Z,25.08
2019-06-10T01:53:18.829Z,25.10
2019-06-10T01:54:18.456Z,25.13
2019-06-10T01:55:18.322Z,25.10
2019-06-10T01:56:18.547Z,25.08
2019-06-10T01:57:18.636Z,25.06
2019-06-10T01:58:20.748Z,25.17
2019-06-10T01:59:21.638Z,25.13
2019-06-10T02:00:25.127Z,25.10
2019-06-10T02:01:23.070Z,25.07
2019-06-10T02:02:19.368Z,25.03
2019-06-10T02:03:18.938Z,25.08
2019-06-10T02:04:19.903Z,25.11
2019-06-10T02:05:19.613Z,25.07
2019-06-10T02:06:20.524Z,25.08
2019-06-10T02:07:22.715Z,25.04
2019-06-10T02:08:19.720Z,25.10
2019-06-10T02:09:18.791Z,25.07
2019-06-10T02:10:19.052Z,25.06
2019-06-10T02:11:21.394Z,24.98
2019-06-10T02:12:20.143Z,25.11
2019-06-10T02:13:17.858Z,25.03
2019-06-10T02:14:19.366Z,25.01
2019-06-10T02:15:18.465Z,25.08
2019-06-10T02:16:19.463Z,25.06
2019-06-10T02:17:20.030Z,25.04
2019-06-10T02:18:18.066Z,25.13
2019-06-10T02:19:18.674Z,25.03
2019-06-10T02:20:19.381Z,25.01
2019-06-10T02:21:19.383Z,24.99
2019-06-10T02:22:18.530Z,25.01
2019-06-10T02:23:18.716Z,25.04
2019-06-10T02:24:19.046Z,25.07
2019-06-10T02:25:18.759Z,25.07
2019-06-10T02:26:18.269Z,25.04
2019-06-10T02:27:18.961Z,25.14
2019-06-10T02:28:17.695Z,25.03
2019-06-10T02:29:17.683Z,25.16
2019-06-10T02:30:28.509Z,24.98
2019-06-10T02:31:27.529Z,25.07
2019-06-10T02:32:30.487Z,25.11
2019-06-10T02:33:22.763Z,25.01
2019-06-10T02:34:25.056Z,25.06
2019-06-10T02:35:30.645Z,25.01
2019-06-10T02:36:25.597Z,25.06
2019-06-10T02:37:22.488Z,25.01
2019-06-10T02:38:26.296Z,25.06
2019-06-10T02:39:25.824Z,24.99
2019-06-10T02:40:24.533Z,25.11
2019-06-10T02:41:22.420Z,24.99
2019-06-10T02:42:21.634Z,25.04
2019-06-10T02:43:22.246Z,24.95
2019-06-10T02:44:24.019Z,24.93
2019-06-10T02:45:25.256Z,24.99
2019-06-10T02:46:27.354Z,24.95
2019-06-10T02:47:22.698Z,24.96
2019-06-10T02:48:21.971Z,24.89
2019-06-10T02:49:35.220Z,24.95
2019-06-10T02:50:22.749Z,24.98
2019-06-10T02:51:22.102Z,25.07
2019-06-10T02:52:20.652Z,24.96
2019-06-10T02:53:19.251Z,24.96
2019-06-10T02:54:20.204Z,24.96
2019-06-10T02:55:19.654Z,25.01
2019-06-10T02:56:19.426Z,25.04
2019-06-10T02:57:18.770Z,25.07
2019-06-10T02:58:19.098Z,25.10
2019-06-10T02:59:18.235Z,25.10
2019-06-10T03:00:31.102Z,25.06
2019-06-10T03:01:21.094Z,25.10
2019-06-10T03:02:18.341Z,24.99
2019-06-10T03:03:22.883Z,25.06
2019-06-10T03:04:20.663Z,24.98
2019-06-10T03:05:19.604Z,25.03
2019-06-10T03:06:20.697Z,25.04
2019-06-10T03:07:20.126Z,24.99
2019-06-10T03:08:18.499Z,25.06
2019-06-10T03:09:18.414Z,24.98
2019-06-10T03:10:19.521Z,25.03
2019-06-10T03:11:19.226Z,25.03
2019-06-10T03:12:17.640Z,24.96
2019-06-10T03:13:17.639Z,24.98
2019-06-10T03:14:17.749Z,24.96
2019-06-10T03:15:17.867Z,24.99
2019-06-10T03:16:17.821Z,24.93
2019-06-10T03:17:17.765Z,24.91
2019-06-10T03:18:17.802Z,24.93
2019-06-10T03:19:33.238Z,24.98
2019-06-10T03:20:18.133Z,25.03
2019-06-10T03:21:17.965Z,24.93
2019-06-10T03:22:17.994Z,25.06
2019-06-10T03:23:17.983Z,25.04
2019-06-10T03:24:17.092Z,25.06
2019-06-10T03:25:18.207Z,25.01
2019-06-10T03:26:17.275Z,25.10
2019-06-10T03:27:18.295Z,24.99
2019-06-10T03:28:17.441Z,25.03
2019-06-10T03:29:17.034Z,25.11
2019-06-10T03:30:26.182Z,25.06
2019-06-10T03:31:18.812Z,25.06
2019-06-10T03:32:19.654Z,25.06
2019-06-10T03:33:17.735Z,25.10
2019-06-10T03:34:18.162Z,25.08
2019-06-10T03:35:17.367Z,25.08
2019-06-10T03:36:18.133Z,25.07
2019-06-10T03:37:18.239Z,25.07
2019-06-10T03:38:17.169Z,25.06
2019-06-10T03:39:16.944Z,25.10
2019-06-10T03:40:16.916Z,25.07
2019-06-10T03:41:16.903Z,25.04
2019-06-10T03:42:16.901Z,25.10
2019-06-10T03:43:16.899Z,25.10
2019-06-10T03:44:16.966Z,25.07
2019-06-10T03:45:17.477Z,25.21
2019-06-10T03:46:17.266Z,25.13
2019-06-10T03:47:17.120Z,25.11
2019-06-10T03:48:17.101Z,25.16
2019-06-10T03:49:17.181Z,25.23
2019-06-10T03:50:17.223Z,25.18
2019-06-10T03:51:17.169Z,25.10
2019-06-10T03:52:17.118Z,25.16
2019-06-10T03:53:17.292Z,25.21
2019-06-10T03:54:17.150Z,25.21
2019-06-10T03:55:17.266Z,25.18
2019-06-10T03:56:17.161Z,25.21
2019-06-10T03:57:17.162Z,25.16
2019-06-10T03:58:17.462Z,25.18
2019-06-10T03:59:17.195Z,25.21
2019-06-10T04:00:17.484Z,25.23
2019-06-10T04:01:17.404Z,25.17
2019-06-10T04:02:17.307Z,25.14
2019-06-10T04:03:17.342Z,25.16
2019-06-10T04:04:17.377Z,25.22
2019-06-10T04:05:17.519Z,25.14
2019-06-10T04:06:17.449Z,25.22
2019-06-10T04:07:17.994Z,25.17
2019-06-10T04:08:17.458Z,25.21
2019-06-10T04:09:17.426Z,25.16
2019-06-10T04:10:17.545Z,25.10
2019-06-10T04:11:17.431Z,25.10
2019-06-10T04:12:17.471Z,25.10
2019-06-10T04:13:17.486Z,25.07
2019-06-10T04:14:17.577Z,24.98
2019-06-10T04:15:17.632Z,25.10
2019-06-10T04:16:17.604Z,24.95
2019-06-10T04:17:17.534Z,24.95
2019-06-10T04:18:17.854Z,24.98
2019-06-10T04:19:17.616Z,24.96
2019-06-10T04:20:17.485Z,24.93
2019-06-10T04:21:17.634Z,25.01
2019-06-10T04:22:17.601Z,24.96
2019-06-10T04:23:17.661Z,24.92
2019-06-10T04:24:17.644Z,24.98
2019-06-10T04:25:17.677Z,25.01
2019-06-10T04:26:17.552Z,24.99
2019-06-10T04:27:17.502Z,24.84
2019-06-10T04:28:17.742Z,24.86
2019-06-10T04:29:16.391Z,24.86
2019-06-10T04:30:16.689Z,24.86
2019-06-10T04:31:16.365Z,24.89
2019-06-10T04:32:16.357Z,24.86
2019-06-10T04:33:16.349Z,24.85
2019-06-10T04:34:16.333Z,24.85
2019-06-10T04:35:16.324Z,24.88
2019-06-10T04:36:16.317Z,24.92
2019-06-10T04:37:16.305Z,24.95
2019-06-10T04:38:16.295Z,24.95
2019-06-10T04:39:16.282Z,24.95
2019-06-10T04:40:16.268Z,24.92
2019-06-10T04:41:16.265Z,24.95
2019-06-10T04:42:16.249Z,24.92
2019-06-10T04:43:16.243Z,24.92
2019-06-10T04:44:16.228Z,24.91
2019-06-10T04:45:16.214Z,25.01
2019-06-10T04:46:16.210Z,24.84
2019-06-10T04:47:16.193Z,24.81
2019-06-10T04:48:16.188Z,24.85
2019-06-10T04:49:16.180Z,24.92
2019-06-10T04:50:24.906Z,24.98
2019-06-10T04:51:17.152Z,24.93
2019-06-10T04:52:16.140Z,24.88
2019-06-10T04:53:16.128Z,24.95
2019-06-10T04:54:16.117Z,24.88
2019-06-10T04:55:16.109Z,24.91
2019-06-10T04:56:16.099Z,24.86
2019-06-10T04:57:16.089Z,24.84
2019-06-10T04:58:16.075Z,24.76
2019-06-10T04:59:16.065Z,24.86
2019-06-10T05:00:16.055Z,24.84
2019-06-10T05:01:16.043Z,24.86
2019-06-10T05:02:16.034Z,24.81
2019-06-10T05:03:16.022Z,24.86
2019-06-10T05:04:16.015Z,24.80
2019-06-10T05:05:15.999Z,24.80
2019-06-10T05:06:15.993Z,24.76
2019-06-10T05:07:15.978Z,24.81
2019-06-10T05:08:15.971Z,24.78
2019-06-10T05:09:15.958Z,24.78
2019-06-10T05:10:15.951Z,24.77
2019-06-10T05:11:15.938Z,24.76
2019-06-10T05:12:15.931Z,24.80
2019-06-10T05:13:15.917Z,24.68
2019-06-10T05:14:15.902Z,24.68
2019-06-10T05:15:15.893Z,24.77
2019-06-10T05:16:15.886Z,24.69
2019-06-10T05:17:15.876Z,24.76
2019-06-10T05:18:15.859Z,24.74
2019-06-10T05:19:15.849Z,24.77
2019-06-10T05:20:15.837Z,24.80
2019-06-10T05:21:15.833Z,24.77
2019-06-10T05:22:15.816Z,24.69
2019-06-10T05:23:15.807Z,24.76
2019-06-10T05:24:15.796Z,24.73
2019-06-10T05:25:15.785Z,24.76
2019-06-10T05:26:15.775Z,24.68
2019-06-10T05:27:15.764Z,24.77
2019-06-10T05:28:15.754Z,24.78
2019-06-10T05:29:15.755Z,24.77
2019-06-10T05:30:15.730Z,24.76
2019-06-10T05:31:15.722Z,24.70
2019-06-10T05:32:15.708Z,24.76
2019-06-10T05:33:15.699Z,24.78
2019-06-10T05:34:15.694Z,24.77
2019-06-10T05:35:15.676Z,24.78
2019-06-10T05:36:15.665Z,24.73
2019-06-10T05:37:15.657Z,24.81
2019-06-10T05:38:15.643Z,24.70
2019-06-10T05:39:15.647Z,24.74
2019-06-10T05:40:15.626Z,24.63
2019-06-10T05:41:15.629Z,24.66
2019-06-10T05:42:15.602Z,24.66
2019-06-10T05:43:15.595Z,24.63
2019-06-10T05:44:15.577Z,24.68
2019-06-10T05:45:15.570Z,24.66
2019-06-10T05:46:15.565Z,24.68
2019-06-10T05:47:15.558Z,24.63
2019-06-10T05:48:16.853Z,24.69
2019-06-10T05:49:15.524Z,24.77
2019-06-10T05:50:15.514Z,24.84
2019-06-10T05:51:15.502Z,24.78
2019-06-10T05:52:15.496Z,24.74
2019-06-10T05:53:15.481Z,24.77
2019-06-10T05:54:15.471Z,24.84
2019-06-10T05:55:15.458Z,24.84
2019-06-10T05:56:15.447Z,24.78
2019-06-10T05:57:15.440Z,24.74
2019-06-10T05:58:15.432Z,24.66
2019-06-10T05:59:15.415Z,24.80
2019-06-10T06:00:15.421Z,24.77
2019-06-10T06:01:15.395Z,24.69
2019-06-10T06:02:15.386Z,24.73
2019-06-10T06:03:15.376Z,24.74
2019-06-10T06:04:15.368Z,24.66
2019-06-10T06:05:15.352Z,24.74
2019-06-10T06:06:15.344Z,24.60
2019-06-10T06:07:15.329Z,24.76
2019-06-10T06:08:15.321Z,24.76
2019-06-10T06:09:15.311Z,24.74
2019-06-10T06:10:15.307Z,24.69
2019-06-10T06:11:15.286Z,24.73
2019-06-10T06:12:15.278Z,24.81
2019-06-10T06:13:15.267Z,24.70
2019-06-10T06:14:15.253Z,24.74
2019-06-10T06:15:15.247Z,24.78
2019-06-10T06:16:15.248Z,24.84
2019-06-10T06:17:16.808Z,24.77
2019-06-10T06:18:15.209Z,24.80
2019-06-10T06:19:15.198Z,24.85
2019-06-10T06:20:15.188Z,24.84
2019-06-10T06:21:25.648Z,24.89
2019-06-10T06:22:16.166Z,24.89
2019-06-10T06:23:15.158Z,24.84
2019-06-10T06:24:15.166Z,24.89
2019-06-10T06:25:15.793Z,24.85
2019-06-10T06:26:16.768Z,24.84
2019-06-10T06:27:15.116Z,24.86
2019-06-10T06:28:16.300Z,24.85
2019-06-10T06:29:15.090Z,24.89
2019-06-10T06:30:18.590Z,24.84
2019-06-10T06:31:15.074Z,24.84
2019-06-10T06:32:15.059Z,24.85
2019-06-10T06:33:15.055Z,24.89
2019-06-10T06:34:15.092Z,24.86
2019-06-10T06:35:15.024Z,24.91
2019-06-10T06:36:15.014Z,24.86
2019-06-10T06:37:15.009Z,24.85
2019-06-10T06:38:14.999Z,24.96
2019-06-10T06:39:14.990Z,24.91
2019-06-10T06:40:14.969Z,24.86
2019-06-10T06:41:14.966Z,24.86
2019-06-10T06:42:14.953Z,24.99
2019-06-10T06:43:14.934Z,24.88
2019-06-10T06:44:14.926Z,24.93
2019-06-10T06:45:14.914Z,25.01
2019-06-10T06:46:14.902Z,24.93
2019-06-10T06:47:14.889Z,25.03
2019-06-10T06:48:14.881Z,24.95
2019-06-10T06:49:14.869Z,24.99
2019-06-10T06:50:14.877Z,25.03
2019-06-10T06:51:14.853Z,25.01
2019-06-10T06:52:14.837Z,25.01
2019-06-10T06:53:25.756Z,25.04
2019-06-10T06:54:15.813Z,25.13
2019-06-10T06:55:14.807Z,25.07
2019-06-10T06:56:14.801Z,25.04
2019-06-10T06:57:14.782Z,25.18
2019-06-10T06:58:14.769Z,25.18
2019-06-10T06:59:14.760Z,25.21
2019-06-10T07:00:41.082Z,25.26
2019-06-10T07:01:15.735Z,25.18
2019-06-10T07:02:14.726Z,25.31
2019-06-10T07:03:14.725Z,25.28
2019-06-10T07:04:14.707Z,25.28
2019-06-10T07:05:14.694Z,25.26
2019-06-10T07:06:14.686Z,25.22
2019-06-10T07:07:14.672Z,25.31
2019-06-10T07:08:14.665Z,25.28
2019-06-10T07:09:14.659Z,25.31
2019-06-10T07:10:14.649Z,25.35
2019-06-10T07:11:14.633Z,25.36
2019-06-10T07:12:14.620Z,25.32
2019-06-10T07:13:14.611Z,25.40
2019-06-10T07:14:14.602Z,25.31
2019-06-10T07:15:14.594Z,25.38
2019-06-10T07:16:14.580Z,25.38
2019-06-10T07:17:14.570Z,25.36
2019-06-10T07:18:14.556Z,25.31
2019-06-10T07:19:14.551Z,25.38
2019-06-10T07:20:14.535Z,25.33
2019-06-10T07:21:14.522Z,25.35
2019-06-10T07:22:16.269Z,25.38
2019-06-10T07:23:14.506Z,25.44
2019-06-10T07:24:14.495Z,25.43
2019-06-10T07:25:14.491Z,25.46
2019-06-10T07:26:14.472Z,25.41
2019-06-10T07:27:14.464Z,25.48
2019-06-10T07:28:14.450Z,25.55
2019-06-10T07:29:14.439Z,25.63
2019-06-10T07:30:15.204Z,25.62
2019-06-10T07:31:23.121Z,25.65
2019-06-10T07:32:15.409Z,25.65
2019-06-10T07:33:14.395Z,25.70
2019-06-10T07:34:14.385Z,25.73
2019-06-10T07:35:14.375Z,25.75
2019-06-10T07:36:14.365Z,25.75
2019-06-10T07:37:14.359Z,25.75
2019-06-10T07:38:14.344Z,25.84
2019-06-10T07:39:14.332Z,25.84
2019-06-10T07:40:14.321Z,25.78
2019-06-10T07:41:14.313Z,25.75
2019-06-10T07:42:14.300Z,25.72
2019-06-10T07:43:14.290Z,25.66
2019-06-10T07:44:14.280Z,25.69
2019-06-10T07:45:14.271Z,25.68
2019-06-10T07:46:14.258Z,25.68
2019-06-10T07:47:14.250Z,25.63
2019-06-10T07:48:14.235Z,25.60
2019-06-10T07:49:14.224Z,25.58
2019-06-10T07:50:14.213Z,25.54
2019-06-10T07:51:14.202Z,25.53
2019-06-10T07:52:19.461Z,25.65
2019-06-10T07:53:15.181Z,25.60
2019-06-10T07:54:14.169Z,25.55
2019-06-10T07:55:14.164Z,25.54
2019-06-10T07:56:14.147Z,25.59
2019-06-10T07:57:14.157Z,25.63
2019-06-10T07:58:14.125Z,25.59
2019-06-10T07:59:14.118Z,25.68
2019-06-10T08:00:14.105Z,25.63
2019-06-10T08:01:14.094Z,25.68
2019-06-10T08:02:14.085Z,25.65
2019-06-10T08:03:14.071Z,25.68
2019-06-10T08:04:14.068Z,25.66
2019-06-10T08:05:14.053Z,25.65
2019-06-10T08:06:14.045Z,25.66
2019-06-10T08:07:14.028Z,25.65
2019-06-10T08:08:14.018Z,25.66
2019-06-10T08:09:14.027Z,25.63
2019-06-10T08:10:13.997Z,25.66
2019-06-10T08:11:14.271Z,25.68
2019-06-10T08:12:13.978Z,25.69
2019-06-10T08:13:13.966Z,25.80
2019-06-10T08:14:13.955Z,25.77
2019-06-10T08:15:13.943Z,25.75
2019-06-10T08:16:13.932Z,25.77
2019-06-10T08:17:13.923Z,25.83
2019-06-10T08:18:13.910Z,25.73
2019-06-10T08:19:29.872Z,25.80
2019-06-10T08:20:14.891Z,25.80
2019-06-10T08:21:13.881Z,25.72
2019-06-10T08:22:29.973Z,25.75
2019-06-10T08:23:14.857Z,25.65
2019-06-10T08:24:13.848Z,25.59
2019-06-10T08:25:13.839Z,25.50
2019-06-10T08:26:13.831Z,25.48
2019-06-10T08:27:13.819Z,25.51
2019-06-10T08:28:13.816Z,25.54
2019-06-10T08:29:13.794Z,25.44
2019-06-10T08:30:22.188Z,25.50
2019-06-10T08:31:14.779Z,25.60
2019-06-10T08:32:13.762Z,25.51
2019-06-10T08:33:13.890Z,25.55
2019-06-10T08:34:13.740Z,25.59
2019-06-10T08:35:13.743Z,25.65
2019-06-10T08:36:13.848Z,25.65
2019-06-10T08:37:13.821Z,25.53
2019-06-10T08:38:13.708Z,25.50
2019-06-10T08:39:15.938Z,25.59
2019-06-10T08:40:13.678Z,25.58
2019-06-10T08:41:13.668Z,25.60
2019-06-10T08:42:13.657Z,25.55
2019-06-10T08:43:13.649Z,25.60
2019-06-10T08:44:13.641Z,25.58
2019-06-10T08:45:13.625Z,25.59
2019-06-10T08:46:13.612Z,25.63
2019-06-10T08:47:13.606Z,25.65
2019-06-10T08:48:13.593Z,25.70
2019-06-10T08:49:13.582Z,25.73
2019-06-10T08:50:13.574Z,25.84
2019-06-10T08:51:13.564Z,25.77
2019-06-10T08:52:13.548Z,25.81
2019-06-10T08:53:17.848Z,25.83
2019-06-10T08:54:13.529Z,25.81
2019-06-10T08:55:13.604Z,25.83
2019-06-10T08:56:13.507Z,25.85
2019-06-10T08:57:13.498Z,25.88
2019-06-10T08:58:13.489Z,25.84
2019-06-10T08:59:13.476Z,25.87
2019-06-10T09:00:16.288Z,25.91
2019-06-10T09:01:14.453Z,25.85
2019-06-10T09:02:13.505Z,25.91
2019-06-10T09:03:13.433Z,25.95
2019-06-10T09:04:13.480Z,25.98
2019-06-10T09:05:13.414Z,26.00
2019-06-10T09:06:13.519Z,25.96
2019-06-10T09:07:13.391Z,25.96
2019-06-10T09:08:13.380Z,25.98
2019-06-10T09:09:13.371Z,25.91
2019-06-10T09:10:13.570Z,25.93
2019-06-10T09:11:13.387Z,25.90
2019-06-10T09:12:28.654Z,25.85
2019-06-10T09:13:14.327Z,25.87
2019-06-10T09:14:13.386Z,25.95
2019-06-10T09:15:13.351Z,25.90
2019-06-10T09:16:19.104Z,25.99
2019-06-10T09:17:14.282Z,25.90
2019-06-10T09:18:14.972Z,26.00
2019-06-10T09:19:13.308Z,25.96
2019-06-10T09:20:13.251Z,25.96
2019-06-10T09:21:13.241Z,25.98
2019-06-10T09:22:13.237Z,25.98
2019-06-10T09:23:21.530Z,25.95
2019-06-10T09:24:14.207Z,25.96
2019-06-10T09:25:13.330Z,25.95
2019-06-10T09:26:13.195Z,25.98
2019-06-10T09:27:13.533Z,25.98
2019-06-10T09:28:13.169Z,26.00
2019-06-10T09:29:13.511Z,25.99
2019-06-10T09:30:13.582Z,25.98
2019-06-10T09:31:14.029Z,26.03
2019-06-10T09:32:13.125Z,25.99
2019-06-10T09:33:13.117Z,26.03
2019-06-10T09:34:13.104Z,25.96
2019-06-10T09:35:13.092Z,25.96
2019-06-10T09:36:13.083Z,26.06
2019-06-10T09:37:13.074Z,26.03
2019-06-10T09:38:14.187Z,26.06
2019-06-10T09:39:13.161Z,26.02
2019-06-10T09:40:13.040Z,26.09
2019-06-10T09:41:14.194Z,26.00
2019-06-10T09:42:14.334Z,26.09
2019-06-10T09:43:13.028Z,26.19
2019-06-10T09:44:13.164Z,26.18
2019-06-10T09:45:13.083Z,26.00
2019-06-10T09:46:12.979Z,25.96
2019-06-10T09:47:14.321Z,26.06
2019-06-10T09:48:13.336Z,26.19
2019-06-10T09:49:12.942Z,26.03
2019-06-10T09:50:12.934Z,26.13
2019-06-10T09:51:12.930Z,26.06
2019-06-10T09:52:13.486Z,26.00
2019-06-10T09:53:28.959Z,26.06
2019-06-10T09:54:13.889Z,26.07
2019-06-10T09:55:12.977Z,25.98
2019-06-10T09:56:12.867Z,26.13
2019-06-10T09:57:12.858Z,26.13
2019-06-10T09:58:12.848Z,26.07
2019-06-10T09:59:12.835Z,25.98
2019-06-10T10:00:12.828Z,25.99
2019-06-10T10:01:13.495Z,25.95
2019-06-10T10:02:12.806Z,26.00
2019-06-10T10:03:12.794Z,25.98
2019-06-10T10:04:12.783Z,25.98
2019-06-10T10:05:12.773Z,25.96
2019-06-10T10:06:15.682Z,25.98
2019-06-10T10:07:12.778Z,25.98
2019-06-10T10:08:12.893Z,26.00
2019-06-10T10:09:12.733Z,25.95
2019-06-10T10:10:12.993Z,25.99
2019-06-10T10:11:13.107Z,25.98
2019-06-10T10:12:12.702Z,25.98
2019-06-10T10:13:13.198Z,25.98
2019-06-10T10:14:16.017Z,25.99
2019-06-10T10:15:26.630Z,25.98
2019-06-10T10:16:13.655Z,25.95
2019-06-10T10:17:12.888Z,26.00
2019-06-10T10:18:13.372Z,26.00
2019-06-10T10:19:13.228Z,25.93
2019-06-10T10:20:12.630Z,25.98
2019-06-10T10:21:13.176Z,25.96
2019-06-10T10:22:13.979Z,25.96
2019-06-10T10:23:13.676Z,25.91
2019-06-10T10:24:15.147Z,26.03
2019-06-10T10:25:14.425Z,25.96
2019-06-10T10:26:13.959Z,26.00
2019-06-10T10:27:13.383Z,26.02
2019-06-10T10:28:13.416Z,25.98
2019-06-10T10:29:13.151Z,25.96
2019-06-10T10:30:13.536Z,25.98
2019-06-10T10:31:13.083Z,25.96
2019-06-10T10:32:13.146Z,25.98
2019-06-10T10:33:12.908Z,26.09
2019-06-10T10:34:13.506Z,25.98
2019-06-10T10:35:12.758Z,25.98
2019-06-10T10:36:14.089Z,25.98
2019-06-10T10:37:12.494Z,25.98
2019-06-10T10:38:14.350Z,25.93
2019-06-10T10:39:13.970Z,25.96
2019-06-10T10:40:12.436Z,25.91
2019-06-10T10:41:13.265Z,25.90
2019-06-10T10:42:12.650Z,26.00
2019-06-10T10:43:25.374Z,26.03
2019-06-10T10:44:14.595Z,26.03
2019-06-10T10:45:13.262Z,26.02
2019-06-10T10:46:13.815Z,26.00
2019-06-10T10:47:12.501Z,26.05
2019-06-10T10:48:14.110Z,26.07
2019-06-10T10:49:13.226Z,26.13
2019-06-10T10:50:13.939Z,26.07
2019-06-10T10:51:13.242Z,26.02
2019-06-10T10:52:12.932Z,26.10
2019-06-10T10:53:12.897Z,26.09
2019-06-10T10:54:28.413Z,26.21
2019-06-10T10:55:13.241Z,26.15
2019-06-10T10:56:13.039Z,26.25
2019-06-10T10:57:13.197Z,26.21
2019-06-10T10:58:12.911Z,26.21
2019-06-10T10:59:13.267Z,26.23
2019-06-10T11:00:12.534Z,26.19
2019-06-10T11:01:14.925Z,26.21
2019-06-10T11:02:12.714Z,26.21
2019-06-10T11:03:13.361Z,26.28
2019-06-10T11:04:13.204Z,26.34
2019-06-10T11:05:12.854Z,26.31
2019-06-10T11:06:12.881Z,26.31
2019-06-10T11:07:12.990Z,26.34
2019-06-10T11:08:13.551Z,26.33
2019-06-10T11:09:12.966Z,26.33
2019-06-10T11:10:12.632Z,26.33
2019-06-10T11:11:13.429Z,26.36
2019-06-10T11:12:12.065Z,26.34
2019-06-10T11:13:12.049Z,26.34
2019-06-10T11:14:15.083Z,26.37
2019-06-10T11:15:13.696Z,26.37
2019-06-10T11:16:12.018Z,26.37
2019-06-10T11:17:12.016Z,26.34
2019-06-10T11:18:12.701Z,26.37
2019-06-10T11:19:13.047Z,26.28
2019-06-10T11:20:13.637Z,26.37
2019-06-10T11:21:13.287Z,26.28
2019-06-10T11:22:12.651Z,26.29
2019-06-10T11:23:12.461Z,26.25
2019-06-10T11:24:14.283Z,26.18
2019-06-10T11:25:12.539Z,26.25
2019-06-10T11:26:13.042Z,26.25
2019-06-10T11:27:12.784Z,26.19
2019-06-10T11:28:11.889Z,26.29
2019-06-10T11:29:11.884Z,26.22
2019-06-10T11:30:12.408Z,26.34
2019-06-10T11:31:13.719Z,26.33
2019-06-10T11:32:11.845Z,26.36
2019-06-10T11:33:11.846Z,26.40
2019-06-10T11:34:11.832Z,26.38
2019-06-10T11:35:12.238Z,26.41
2019-06-10T11:36:13.577Z,26.41
2019-06-10T11:37:12.666Z,26.41
2019-06-10T11:38:12.817Z,26.43
2019-06-10T11:39:13.370Z,26.41
2019-06-10T11:40:13.570Z,26.37
2019-06-10T11:41:13.479Z,26.40
2019-06-10T11:42:13.235Z,26.37
2019-06-10T11:43:13.108Z,26.36
2019-06-10T11:44:11.716Z,26.36
2019-06-10T11:45:11.706Z,26.37
2019-06-10T11:46:13.726Z,26.37
2019-06-10T11:47:13.133Z,26.40
2019-06-10T11:48:13.000Z,26.37
2019-06-10T11:49:12.597Z,26.43
2019-06-10T11:50:12.203Z,26.38
2019-06-10T11:51:13.024Z,26.36
2019-06-10T11:52:12.577Z,26.37
2019-06-10T11:53:12.798Z,26.38
2019-06-10T11:54:12.889Z,26.31
2019-06-10T11:55:18.429Z,26.36
2019-06-10T11:56:13.222Z,26.36
2019-06-10T11:57:12.628Z,26.41
2019-06-10T11:58:11.566Z,26.38
2019-06-10T11:59:13.366Z,26.47
2019-06-10T12:00:16.649Z,26.43
2019-06-10T12:01:13.430Z,26.51
2019-06-10T12:02:13.200Z,26.55
2019-06-10T12:03:13.147Z,26.58
2019-06-10T12:04:12.945Z,26.59
2019-06-10T12:05:12.982Z,26.66
2019-06-10T12:06:13.651Z,26.70
2019-06-10T12:07:12.934Z,26.70
2019-06-10T12:08:13.111Z,26.71
2019-06-10T12:09:13.802Z,26.74
2019-06-10T12:10:12.846Z,26.74
2019-06-10T12:11:12.600Z,26.77
2019-06-10T12:12:12.928Z,26.75
2019-06-10T12:13:13.381Z,26.83
2019-06-10T12:14:12.932Z,26.84
2019-06-10T12:15:12.150Z,26.85
2019-06-10T12:17:05.536Z,26.89
2019-06-10T12:17:24.648Z,26.84
2019-06-10T12:18:13.146Z,26.96
2019-06-10T12:19:12.727Z,26.89
2019-06-10T12:20:13.342Z,26.95
2019-06-10T12:21:13.032Z,26.92
2019-06-10T12:22:13.408Z,26.96
2019-06-10T12:23:12.741Z,26.97
2019-06-10T12:24:12.706Z,26.96
2019-06-10T12:25:31.493Z,26.97
2019-06-10T12:26:12.283Z,26.99
2019-06-10T12:27:13.114Z,26.99
2019-06-10T12:28:12.950Z,27.05
2019-06-10T12:29:12.390Z,27.11
2019-06-10T12:30:13.241Z,27.05
2019-06-10T12:31:13.520Z,27.07
2019-06-10T12:32:13.309Z,27.08
2019-06-10T12:33:19.927Z,27.10
2019-06-10T12:34:12.634Z,27.08
2019-06-10T12:35:13.489Z,27.11
2019-06-10T12:36:12.872Z,27.11
2019-06-10T12:37:15.753Z,27.11
2019-06-10T12:38:13.844Z,27.12
2019-06-10T12:39:14.833Z,27.14
2019-06-10T12:40:12.766Z,27.14
2019-06-10T12:41:14.087Z,27.10
2019-06-10T12:42:14.149Z,27.15
2019-06-10T12:43:12.664Z,27.11
2019-06-10T12:44:12.359Z,27.15
2019-06-10T12:45:12.758Z,27.15
2019-06-10T12:46:12.801Z,27.26
2019-06-10T12:47:11.042Z,27.22
2019-06-10T12:48:13.171Z,27.14
2019-06-10T12:49:13.032Z,27.29
2019-06-10T12:50:12.046Z,27.27
2019-06-10T12:51:13.445Z,27.25
2019-06-10T12:52:12.539Z,27.18